Hitachimaru — JD2063 — position and weather

sailwx.info

Track history (hours):
 
Tides and Currents Weather Stations Pressure Air Temp Water Temp Dewpoint Dewpoint Depression Visibility Wind Speed Wind Dir Waves Ship Positions

Hitachimaru

Last reported at 2014-Dec-21 07:30 UTC. Time now 2014-Dec-21 12:47 UTC.
Position N 35°18' E 139°44'.

Length 83 m; draft 4.5 m.

Type: Cargo ship. MMSI: 431301756.

Date/timePositionNaut miles runAvg speedWind from/ knotsBaromVisibWave heightAir tempDewpointWater temp
2014-Dec-21 07:30N 35°18' E 139°44'8 7.7
2014-Dec-21 06:32N 35°25' E 139°48'3 3.2
2014-Dec-21 05:32N 35°22' E 139°49'0 0.0
2014-Dec-21 04:17N 35°22' E 139°49'0 0.1
2014-Dec-21 03:32N 35°22' E 139°49'0 0.0
2014-Dec-21 02:29N 35°22' E 139°49'0 0.0
2014-Dec-21 01:32N 35°22' E 139°49'0 0.0
2014-Dec-21 00:32N 35°22' E 139°49'0 0.0
2014-Dec-20 23:32N 35°22' E 139°49'0 0.0
2014-Dec-20 22:32N 35°22' E 139°49'0 0.0
2014-Dec-20 21:32N 35°22' E 139°49'0 0.0
2014-Dec-20 20:32N 35°22' E 139°49'0 0.0
2014-Dec-20 19:32N 35°22' E 139°49'0 0.0
2014-Dec-20 18:32N 35°22' E 139°49'0 0.1
2014-Dec-20 17:32N 35°22' E 139°49'0 0.0
2014-Dec-20 16:29N 35°22' E 139°49'0 0.1
2014-Dec-20 15:23N 35°22' E 139°49'0 0.0
2014-Dec-20 14:29N 35°22' E 139°49'0 0.0
2014-Dec-20 13:31N 35°22' E 139°49'0 0.0
2014-Dec-20 12:31N 35°22' E 139°49'0 0.0
2014-Dec-20 11:31N 35°22' E 139°49'0 0.0
2014-Dec-20 10:31N 35°22' E 139°49'0 0.0
2014-Dec-20 09:16N 35°22' E 139°49'0 0.0
2014-Dec-20 08:25N 35°22' E 139°49'0 0.0
2014-Dec-20 07:28N 35°22' E 139°49'0 0.0
2014-Dec-20 06:28N 35°22' E 139°49'0 0.0
2014-Dec-20 05:31N 35°22' E 139°49'0 0.1
2014-Dec-20 04:31N 35°22' E 139°49'2 1.5
2014-Dec-20 03:28N 35°22' E 139°51'0 0.0
2014-Dec-20 02:25N 35°22' E 139°51'0 0.0
2014-Dec-20 01:31N 35°22' E 139°51'0 0.0
2014-Dec-20 00:31N 35°22' E 139°51'0 0.0
2014-Dec-19 23:31N 35°22' E 139°51'0 0.0
2014-Dec-19 22:31N 35°22' E 139°51'0 0.0
2014-Dec-19 21:31N 35°22' E 139°51'0 0.0
2014-Dec-19 20:33N 35°22' E 139°51'0 0.0
2014-Dec-19 19:33N 35°22' E 139°51'2 1.8
2014-Dec-19 18:34N 35°22' E 139°49'0 0.1
2014-Dec-19 17:28N 35°22' E 139°49'1 1.1
2014-Dec-19 16:33N 35°23' E 139°49'9 1.0
2014-Dec-19 08:14N 35°31' E 139°53'811.9
2014-Dec-19 07:33N 35°25' E 139°47'1110.5
2014-Dec-19 06:33N 35°14' E 139°47'  
2014-Dec-14 20:21N 33°58' E 135°01'1012.3
2014-Dec-14 19:33N 34°08' E 134°59'2110.7
2014-Dec-14 17:33N 34°28' E 135°09'1211.8
2014-Dec-14 16:33N 34°35' E 135°20'6 1.0
2014-Dec-14 10:33N 34°34' E 135°27'2 1.1
2014-Dec-14 09:04N 34°35' E 135°28'0 0.0
2014-Dec-14 06:28N 34°35' E 135°28'0 0.0
2014-Dec-14 04:04N 34°35' E 135°28'0 0.1
2014-Dec-14 03:28N 34°35' E 135°28'0 0.0
2014-Dec-14 01:16N 34°35' E 135°28'0 0.1
2014-Dec-14 00:28N 34°35' E 135°28'0 0.0
2014-Dec-13 23:28N 34°35' E 135°28'0 0.0
2014-Dec-13 22:28N 34°35' E 135°28'1 1.6
2014-Dec-13 21:32N 34°34' E 135°27'0 0.0
2014-Dec-13 06:32N 34°34' E 135°27'2 0.5
2014-Dec-13 03:15N 34°35' E 135°28'0 0.0
2014-Dec-13 01:21N 34°35' E 135°28'0 0.1
2014-Dec-13 00:33N 34°35' E 135°28'0 0.0
2014-Dec-12 05:14N 34°35' E 135°28'0 0.0
2014-Dec-12 01:08N 34°35' E 135°28'1 1.5
2014-Dec-12 00:32N 34°35' E 135°27'1010.5
2014-Dec-11 23:33N 34°34' E 135°14'1313.3
2014-Dec-11 22:33N 34°37' E 134°59'1413.2
2014-Dec-11 21:28N 34°40' E 134°41'  
Track history (hours):
 
Tides and Currents Weather Stations Pressure Air Temp Water Temp Dewpoint Dewpoint Depression Visibility Wind Speed Wind Dir Waves Ship Positions

Hitachimaru

Last reported at 2014-Dec-21 07:30 UTC. Time now 2014-Dec-21 12:47 UTC.
Position N 35°18' E 139°44'.

Length 83 m; draft 4.5 m.

Type: Cargo ship. MMSI: 431301756.

Date/timePositionNaut miles runAvg speedWind from/ knotsBaromVisibWave heightAir tempDewpointWater temp
2014-Dec-21 07:30N 35°18' E 139°44'8 7.7
2014-Dec-21 06:32N 35°25' E 139°48'3 3.2
2014-Dec-21 05:32N 35°22' E 139°49'0 0.0
2014-Dec-21 04:17N 35°22' E 139°49'0 0.1
2014-Dec-21 03:32N 35°22' E 139°49'0 0.0
2014-Dec-21 02:29N 35°22' E 139°49'0 0.0
2014-Dec-21 01:32N 35°22' E 139°49'0 0.0
2014-Dec-21 00:32N 35°22' E 139°49'0 0.0
2014-Dec-20 23:32N 35°22' E 139°49'0 0.0
2014-Dec-20 22:32N 35°22' E 139°49'0 0.0
2014-Dec-20 21:32N 35°22' E 139°49'0 0.0
2014-Dec-20 20:32N 35°22' E 139°49'0 0.0
2014-Dec-20 19:32N 35°22' E 139°49'0 0.0
2014-Dec-20 18:32N 35°22' E 139°49'0 0.1
2014-Dec-20 17:32N 35°22' E 139°49'0 0.0
2014-Dec-20 16:29N 35°22' E 139°49'0 0.1
2014-Dec-20 15:23N 35°22' E 139°49'0 0.0
2014-Dec-20 14:29N 35°22' E 139°49'0 0.0
2014-Dec-20 13:31N 35°22' E 139°49'0 0.0
2014-Dec-20 12:31N 35°22' E 139°49'0 0.0
2014-Dec-20 11:31N 35°22' E 139°49'0 0.0
2014-Dec-20 10:31N 35°22' E 139°49'0 0.0
2014-Dec-20 09:16N 35°22' E 139°49'0 0.0
2014-Dec-20 08:25N 35°22' E 139°49'0 0.0
2014-Dec-20 07:28N 35°22' E 139°49'0 0.0
2014-Dec-20 06:28N 35°22' E 139°49'0 0.0
2014-Dec-20 05:31N 35°22' E 139°49'0 0.1
2014-Dec-20 04:31N 35°22' E 139°49'2 1.5
2014-Dec-20 03:28N 35°22' E 139°51'0 0.0
2014-Dec-20 02:25N 35°22' E 139°51'0 0.0
2014-Dec-20 01:31N 35°22' E 139°51'0 0.0
2014-Dec-20 00:31N 35°22' E 139°51'0 0.0
2014-Dec-19 23:31N 35°22' E 139°51'0 0.0
2014-Dec-19 22:31N 35°22' E 139°51'0 0.0
2014-Dec-19 21:31N 35°22' E 139°51'0 0.0
2014-Dec-19 20:33N 35°22' E 139°51'0 0.0
2014-Dec-19 19:33N 35°22' E 139°51'2 1.8
2014-Dec-19 18:34N 35°22' E 139°49'0 0.1
2014-Dec-19 17:28N 35°22' E 139°49'1 1.1
2014-Dec-19 16:33N 35°23' E 139°49'9 1.0
2014-Dec-19 08:14N 35°31' E 139°53'811.9
2014-Dec-19 07:33N 35°25' E 139°47'1110.5
2014-Dec-19 06:33N 35°14' E 139°47'  
2014-Dec-14 20:21N 33°58' E 135°01'1012.3
2014-Dec-14 19:33N 34°08' E 134°59'2110.7
2014-Dec-14 17:33N 34°28' E 135°09'1211.8
2014-Dec-14 16:33N 34°35' E 135°20'6 1.0
2014-Dec-14 10:33N 34°34' E 135°27'2 1.1
2014-Dec-14 09:04N 34°35' E 135°28'0 0.0
2014-Dec-14 06:28N 34°35' E 135°28'0 0.0
2014-Dec-14 04:04N 34°35' E 135°28'0 0.1
2014-Dec-14 03:28N 34°35' E 135°28'0 0.0
2014-Dec-14 01:16N 34°35' E 135°28'0 0.1
2014-Dec-14 00:28N 34°35' E 135°28'0 0.0
2014-Dec-13 23:28N 34°35' E 135°28'0 0.0
2014-Dec-13 22:28N 34°35' E 135°28'1 1.6
2014-Dec-13 21:32N 34°34' E 135°27'0 0.0
2014-Dec-13 06:32N 34°34' E 135°27'2 0.5
2014-Dec-13 03:15N 34°35' E 135°28'0 0.0
2014-Dec-13 01:21N 34°35' E 135°28'0 0.1
2014-Dec-13 00:33N 34°35' E 135°28'0 0.0
2014-Dec-12 05:14N 34°35' E 135°28'0 0.0
2014-Dec-12 01:08N 34°35' E 135°28'1 1.5
2014-Dec-12 00:32N 34°35' E 135°27'1010.5
2014-Dec-11 23:33N 34°34' E 135°14'1313.3
2014-Dec-11 22:33N 34°37' E 134°59'1413.2
2014-Dec-11 21:28N 34°40' E 134°41'  

Dump ship's entire track history